sensor_id;sensor_type;location;lat;lon;timestamp;P1;durP1;ratioP1;P2;durP2;ratioP2
62362;SDS011;48396;48.426;1.500;2023-02-23T00:01:12;18.55;;;7.50;;
62362;SDS011;48396;48.426;1.500;2023-02-23T00:03:39;15.23;;;5.88;;
62362;SDS011;48396;48.426;1.500;2023-02-23T00:06:06;17.73;;;6.88;;
62362;SDS011;48396;48.426;1.500;2023-02-23T00:08:33;14.88;;;5.47;;
62362;SDS011;48396;48.426;1.500;2023-02-23T00:11:06;9.10;;;3.88;;
62362;SDS011;48396;48.426;1.500;2023-02-23T00:13:33;11.63;;;4.83;;
62362;SDS011;48396;48.426;1.500;2023-02-23T00:16:05;12.93;;;4.80;;
62362;SDS011;48396;48.426;1.500;2023-02-23T00:18:45;13.00;;;5.18;;
62362;SDS011;48396;48.426;1.500;2023-02-23T00:21:15;11.48;;;4.72;;
62362;SDS011;48396;48.426;1.500;2023-02-23T00:23:43;13.88;;;5.13;;
62362;SDS011;48396;48.426;1.500;2023-02-23T00:26:22;9.95;;;4.07;;
62362;SDS011;48396;48.426;1.500;2023-02-23T00:28:49;13.18;;;4.20;;
62362;SDS011;48396;48.426;1.500;2023-02-23T00:31:17;7.63;;;4.05;;
62362;SDS011;48396;48.426;1.500;2023-02-23T00:33:47;11.18;;;4.43;;
62362;SDS011;48396;48.426;1.500;2023-02-23T00:36:15;12.68;;;4.55;;
62362;SDS011;48396;48.426;1.500;2023-02-23T00:38:41;13.90;;;4.10;;
62362;SDS011;48396;48.426;1.500;2023-02-23T00:41:08;12.05;;;4.35;;
62362;SDS011;48396;48.426;1.500;2023-02-23T00:43:37;13.45;;;4.47;;
62362;SDS011;48396;48.426;1.500;2023-02-23T00:46:11;12.57;;;4.38;;
62362;SDS011;48396;48.426;1.500;2023-02-23T00:48:40;10.02;;;4.05;;
62362;SDS011;48396;48.426;1.500;2023-02-23T00:51:06;11.80;;;4.10;;
62362;SDS011;48396;48.426;1.500;2023-02-23T00:53:31;8.95;;;3.65;;
62362;SDS011;48396;48.426;1.500;2023-02-23T00:55:58;7.95;;;3.75;;
62362;SDS011;48396;48.426;1.500;2023-02-23T00:58:24;12.10;;;3.95;;
62362;SDS011;48396;48.426;1.500;2023-02-23T01:00:51;9.93;;;3.55;;
62362;SDS011;48396;48.426;1.500;2023-02-23T01:03:17;12.13;;;3.85;;
62362;SDS011;48396;48.426;1.500;2023-02-23T01:05:44;10.40;;;4.07;;
62362;SDS011;48396;48.426;1.500;2023-02-23T01:08:13;11.20;;;3.92;;
62362;SDS011;48396;48.426;1.500;2023-02-23T01:10:39;11.18;;;4.40;;
62362;SDS011;48396;48.426;1.500;2023-02-23T01:13:08;11.20;;;4.03;;
62362;SDS011;48396;48.426;1.500;2023-02-23T01:15:39;11.52;;;3.90;;
62362;SDS011;48396;48.426;1.500;2023-02-23T01:18:07;10.80;;;4.20;;
62362;SDS011;48396;48.426;1.500;2023-02-23T01:20:34;13.63;;;4.25;;
62362;SDS011;48396;48.426;1.500;2023-02-23T01:23:01;15.20;;;4.80;;
62362;SDS011;48396;48.426;1.500;2023-02-23T01:25:28;10.20;;;4.05;;
62362;SDS011;48396;48.426;1.500;2023-02-23T01:27:54;14.40;;;4.70;;
62362;SDS011;48396;48.426;1.500;2023-02-23T01:30:20;12.70;;;4.45;;
62362;SDS011;48396;48.426;1.500;2023-02-23T01:32:46;9.48;;;3.90;;
62362;SDS011;48396;48.426;1.500;2023-02-23T01:35:12;13.05;;;4.47;;
62362;SDS011;48396;48.426;1.500;2023-02-23T01:37:39;11.45;;;4.40;;
62362;SDS011;48396;48.426;1.500;2023-02-23T01:42:52;8.68;;;4.03;;
62362;SDS011;48396;48.426;1.500;2023-02-23T01:48:19;10.50;;;3.83;;
62362;SDS011;48396;48.426;1.500;2023-02-23T01:53:17;9.25;;;3.85;;
62362;SDS011;48396;48.426;1.500;2023-02-23T01:55:51;12.20;;;3.83;;
62362;SDS011;48396;48.426;1.500;2023-02-23T01:58:20;9.70;;;3.85;;
62362;SDS011;48396;48.426;1.500;2023-02-23T02:00:56;10.25;;;3.75;;
62362;SDS011;48396;48.426;1.500;2023-02-23T02:05:59;10.95;;;3.60;;
62362;SDS011;48396;48.426;1.500;2023-02-23T02:08:27;7.20;;;3.45;;
62362;SDS011;48396;48.426;1.500;2023-02-23T02:10:55;13.15;;;4.18;;
62362;SDS011;48396;48.426;1.500;2023-02-23T02:13:27;10.93;;;3.72;;
62362;SDS011;48396;48.426;1.500;2023-02-23T02:19:13;11.02;;;3.60;;
62362;SDS011;48396;48.426;1.500;2023-02-23T02:36:04;10.50;;;3.78;;
62362;SDS011;48396;48.426;1.500;2023-02-23T02:38:41;13.80;;;3.78;;
62362;SDS011;48396;48.426;1.500;2023-02-23T02:41:19;14.52;;;4.57;;
62362;SDS011;48396;48.426;1.500;2023-02-23T02:43:58;11.52;;;4.28;;
62362;SDS011;48396;48.426;1.500;2023-02-23T02:46:40;7.90;;;3.60;;
62362;SDS011;48396;48.426;1.500;2023-02-23T02:49:22;13.48;;;3.67;;
62362;SDS011;48396;48.426;1.500;2023-02-23T02:57:28;12.07;;;3.97;;
62362;SDS011;48396;48.426;1.500;2023-02-23T02:59:57;11.70;;;3.80;;
62362;SDS011;48396;48.426;1.500;2023-02-23T03:02:41;14.50;;;3.92;;
62362;SDS011;48396;48.426;1.500;2023-02-23T03:05:44;11.52;;;4.00;;
62362;SDS011;48396;48.426;1.500;2023-02-23T03:11:50;12.73;;;3.90;;
62362;SDS011;48396;48.426;1.500;2023-02-23T03:14:52;8.05;;;3.10;;
62362;SDS011;48396;48.426;1.500;2023-02-23T03:17:46;11.57;;;3.90;;
62362;SDS011;48396;48.426;1.500;2023-02-23T03:20:49;6.25;;;3.35;;
62362;SDS011;48396;48.426;1.500;2023-02-23T03:32:48;9.43;;;3.38;;
62362;SDS011;48396;48.426;1.500;2023-02-23T03:41:17;7.88;;;3.42;;
62362;SDS011;48396;48.426;1.500;2023-02-23T03:44:06;12.18;;;3.70;;
62362;SDS011;48396;48.426;1.500;2023-02-23T03:46:55;13.30;;;3.50;;
62362;SDS011;48396;48.426;1.500;2023-02-23T03:49:41;10.40;;;3.22;;
62362;SDS011;48396;48.426;1.500;2023-02-23T03:52:37;7.75;;;3.58;;
62362;SDS011;48396;48.426;1.500;2023-02-23T03:55:31;9.00;;;3.22;;
62362;SDS011;48396;48.426;1.500;2023-02-23T03:58:20;10.38;;;4.07;;
62362;SDS011;48396;48.426;1.500;2023-02-23T04:01:10;9.38;;;3.92;;
62362;SDS011;48396;48.426;1.500;2023-02-23T04:03:55;10.77;;;3.92;;
62362;SDS011;48396;48.426;1.500;2023-02-23T04:06:42;8.15;;;3.58;;
62362;SDS011;48396;48.426;1.500;2023-02-23T04:09:29;9.52;;;3.33;;
62362;SDS011;48396;48.426;1.500;2023-02-23T04:12:23;7.65;;;3.78;;
62362;SDS011;48396;48.426;1.500;2023-02-23T04:15:32;11.43;;;3.88;;
62362;SDS011;48396;48.426;1.500;2023-02-23T04:18:02;10.20;;;3.42;;
62362;SDS011;48396;48.426;1.500;2023-02-23T04:20:29;9.05;;;3.67;;
62362;SDS011;48396;48.426;1.500;2023-02-23T04:22:56;13.43;;;4.03;;
62362;SDS011;48396;48.426;1.500;2023-02-23T04:25:21;7.13;;;3.47;;
62362;SDS011;48396;48.426;1.500;2023-02-23T04:27:48;8.88;;;3.70;;
62362;SDS011;48396;48.426;1.500;2023-02-23T04:30:14;12.93;;;4.07;;
62362;SDS011;48396;48.426;1.500;2023-02-23T04:32:40;11.25;;;3.30;;
62362;SDS011;48396;48.426;1.500;2023-02-23T04:35:06;9.60;;;3.15;;
62362;SDS011;48396;48.426;1.500;2023-02-23T04:37:32;9.70;;;3.72;;
62362;SDS011;48396;48.426;1.500;2023-02-23T04:39:58;11.50;;;3.67;;
62362;SDS011;48396;48.426;1.500;2023-02-23T04:42:23;12.90;;;3.63;;
62362;SDS011;48396;48.426;1.500;2023-02-23T04:44:49;11.82;;;3.80;;
62362;SDS011;48396;48.426;1.500;2023-02-23T04:47:15;13.15;;;4.00;;
62362;SDS011;48396;48.426;1.500;2023-02-23T04:49:44;11.30;;;3.70;;
62362;SDS011;48396;48.426;1.500;2023-02-23T04:52:10;7.43;;;3.70;;
62362;SDS011;48396;48.426;1.500;2023-02-23T04:54:37;11.15;;;4.20;;
62362;SDS011;48396;48.426;1.500;2023-02-23T04:57:03;13.80;;;3.97;;
62362;SDS011;48396;48.426;1.500;2023-02-23T04:59:29;12.02;;;3.95;;
62362;SDS011;48396;48.426;1.500;2023-02-23T05:01:55;12.02;;;4.10;;
62362;SDS011;48396;48.426;1.500;2023-02-23T05:04:21;13.40;;;4.38;;
62362;SDS011;48396;48.426;1.500;2023-02-23T05:06:47;13.13;;;4.72;;
62362;SDS011;48396;48.426;1.500;2023-02-23T05:09:13;8.77;;;3.70;;
62362;SDS011;48396;48.426;1.500;2023-02-23T05:11:39;12.13;;;4.47;;
62362;SDS011;48396;48.426;1.500;2023-02-23T05:14:04;12.23;;;4.00;;
62362;SDS011;48396;48.426;1.500;2023-02-23T05:16:30;14.50;;;4.25;;
62362;SDS011;48396;48.426;1.500;2023-02-23T05:18:57;8.38;;;3.65;;
62362;SDS011;48396;48.426;1.500;2023-02-23T05:21:22;13.80;;;4.47;;
62362;SDS011;48396;48.426;1.500;2023-02-23T05:23:49;11.88;;;4.25;;
62362;SDS011;48396;48.426;1.500;2023-02-23T05:26:15;12.90;;;4.22;;
62362;SDS011;48396;48.426;1.500;2023-02-23T05:28:41;9.98;;;4.18;;
62362;SDS011;48396;48.426;1.500;2023-02-23T05:31:07;10.63;;;3.85;;
62362;SDS011;48396;48.426;1.500;2023-02-23T05:33:33;10.50;;;4.10;;
62362;SDS011;48396;48.426;1.500;2023-02-23T05:36:07;12.95;;;4.30;;
62362;SDS011;48396;48.426;1.500;2023-02-23T05:38:38;12.15;;;4.78;;
62362;SDS011;48396;48.426;1.500;2023-02-23T05:41:08;12.30;;;4.07;;
62362;SDS011;48396;48.426;1.500;2023-02-23T05:43:36;12.30;;;4.72;;
62362;SDS011;48396;48.426;1.500;2023-02-23T05:46:08;12.38;;;4.80;;
62362;SDS011;48396;48.426;1.500;2023-02-23T05:48:39;9.45;;;4.03;;
62362;SDS011;48396;48.426;1.500;2023-02-23T05:51:07;10.32;;;4.82;;
62362;SDS011;48396;48.426;1.500;2023-02-23T05:53:35;15.60;;;4.70;;
62362;SDS011;48396;48.426;1.500;2023-02-23T05:56:02;14.30;;;4.30;;
62362;SDS011;48396;48.426;1.500;2023-02-23T05:58:29;10.90;;;4.18;;
62362;SDS011;48396;48.426;1.500;2023-02-23T06:00:55;11.15;;;4.32;;
62362;SDS011;48396;48.426;1.500;2023-02-23T06:03:21;13.88;;;4.70;;
62362;SDS011;48396;48.426;1.500;2023-02-23T06:05:51;11.07;;;4.43;;
62362;SDS011;48396;48.426;1.500;2023-02-23T06:08:18;10.10;;;3.95;;
62362;SDS011;48396;48.426;1.500;2023-02-23T06:10:43;12.27;;;4.53;;
62362;SDS011;48396;48.426;1.500;2023-02-23T06:13:10;10.63;;;4.30;;
62362;SDS011;48396;48.426;1.500;2023-02-23T06:15:36;12.35;;;4.63;;
62362;SDS011;48396;48.426;1.500;2023-02-23T06:18:03;11.25;;;4.53;;
62362;SDS011;48396;48.426;1.500;2023-02-23T06:20:29;9.25;;;4.10;;
62362;SDS011;48396;48.426;1.500;2023-02-23T06:22:55;12.98;;;4.30;;
62362;SDS011;48396;48.426;1.500;2023-02-23T06:25:21;9.73;;;4.40;;
62362;SDS011;48396;48.426;1.500;2023-02-23T06:27:47;12.40;;;4.50;;
62362;SDS011;48396;48.426;1.500;2023-02-23T06:30:13;13.55;;;4.60;;
62362;SDS011;48396;48.426;1.500;2023-02-23T06:32:39;13.70;;;4.78;;
62362;SDS011;48396;48.426;1.500;2023-02-23T06:35:06;10.32;;;4.28;;
62362;SDS011;48396;48.426;1.500;2023-02-23T06:37:32;13.70;;;4.95;;
62362;SDS011;48396;48.426;1.500;2023-02-23T06:39:59;12.27;;;4.80;;
62362;SDS011;48396;48.426;1.500;2023-02-23T06:42:25;11.88;;;4.20;;
62362;SDS011;48396;48.426;1.500;2023-02-23T06:44:51;14.52;;;4.93;;
62362;SDS011;48396;48.426;1.500;2023-02-23T06:47:16;13.40;;;4.80;;
62362;SDS011;48396;48.426;1.500;2023-02-23T06:49:42;9.93;;;4.68;;
62362;SDS011;48396;48.426;1.500;2023-02-23T06:52:08;11.77;;;4.78;;
62362;SDS011;48396;48.426;1.500;2023-02-23T06:54:35;15.90;;;5.05;;
62362;SDS011;48396;48.426;1.500;2023-02-23T06:57:04;13.38;;;5.03;;
62362;SDS011;48396;48.426;1.500;2023-02-23T06:59:30;11.43;;;5.07;;
62362;SDS011;48396;48.426;1.500;2023-02-23T07:01:56;15.05;;;5.20;;
62362;SDS011;48396;48.426;1.500;2023-02-23T07:04:22;10.68;;;4.63;;
62362;SDS011;48396;48.426;1.500;2023-02-23T07:06:48;17.42;;;5.68;;
62362;SDS011;48396;48.426;1.500;2023-02-23T07:09:14;14.80;;;5.10;;
62362;SDS011;48396;48.426;1.500;2023-02-23T07:11:40;12.02;;;5.00;;
62362;SDS011;48396;48.426;1.500;2023-02-23T07:14:06;12.52;;;5.00;;
62362;SDS011;48396;48.426;1.500;2023-02-23T07:16:35;16.10;;;5.40;;
62362;SDS011;48396;48.426;1.500;2023-02-23T07:19:00;12.32;;;5.20;;
62362;SDS011;48396;48.426;1.500;2023-02-23T07:21:28;12.93;;;4.75;;
62362;SDS011;48396;48.426;1.500;2023-02-23T07:23:56;14.80;;;5.60;;
62362;SDS011;48396;48.426;1.500;2023-02-23T07:26:22;14.98;;;5.80;;
62362;SDS011;48396;48.426;1.500;2023-02-23T07:28:48;15.63;;;5.72;;
62362;SDS011;48396;48.426;1.500;2023-02-23T07:31:14;14.77;;;5.05;;
62362;SDS011;48396;48.426;1.500;2023-02-23T07:33:40;16.38;;;5.00;;
62362;SDS011;48396;48.426;1.500;2023-02-23T07:36:06;14.25;;;5.07;;
62362;SDS011;48396;48.426;1.500;2023-02-23T07:38:32;13.25;;;5.20;;
62362;SDS011;48396;48.426;1.500;2023-02-23T07:40:58;15.13;;;5.57;;
62362;SDS011;48396;48.426;1.500;2023-02-23T07:43:24;16.98;;;5.38;;
62362;SDS011;48396;48.426;1.500;2023-02-23T07:45:50;15.23;;;6.05;;
62362;SDS011;48396;48.426;1.500;2023-02-23T07:48:17;15.13;;;4.95;;
62362;SDS011;48396;48.426;1.500;2023-02-23T07:50:43;11.65;;;5.03;;
62362;SDS011;48396;48.426;1.500;2023-02-23T07:53:09;13.07;;;5.28;;
62362;SDS011;48396;48.426;1.500;2023-02-23T07:55:35;14.35;;;5.60;;
62362;SDS011;48396;48.426;1.500;2023-02-23T07:58:02;10.43;;;4.80;;
62362;SDS011;48396;48.426;1.500;2023-02-23T08:00:30;11.80;;;5.28;;
62362;SDS011;48396;48.426;1.500;2023-02-23T08:02:57;10.90;;;5.22;;
62362;SDS011;48396;48.426;1.500;2023-02-23T08:05:23;14.45;;;5.60;;
62362;SDS011;48396;48.426;1.500;2023-02-23T08:07:50;15.10;;;5.72;;
62362;SDS011;48396;48.426;1.500;2023-02-23T08:10:16;14.63;;;5.50;;
62362;SDS011;48396;48.426;1.500;2023-02-23T08:12:42;13.82;;;5.47;;
62362;SDS011;48396;48.426;1.500;2023-02-23T08:15:08;13.00;;;5.75;;
62362;SDS011;48396;48.426;1.500;2023-02-23T08:17:35;15.38;;;5.47;;
62362;SDS011;48396;48.426;1.500;2023-02-23T08:20:02;13.32;;;5.20;;
62362;SDS011;48396;48.426;1.500;2023-02-23T08:22:28;12.35;;;5.03;;
62362;SDS011;48396;48.426;1.500;2023-02-23T08:24:54;14.70;;;5.93;;
62362;SDS011;48396;48.426;1.500;2023-02-23T08:27:20;15.25;;;5.50;;
62362;SDS011;48396;48.426;1.500;2023-02-23T08:29:46;15.15;;;5.45;;
62362;SDS011;48396;48.426;1.500;2023-02-23T08:32:12;15.23;;;5.60;;
62362;SDS011;48396;48.426;1.500;2023-02-23T08:34:38;18.08;;;7.18;;
62362;SDS011;48396;48.426;1.500;2023-02-23T08:37:05;18.60;;;6.93;;
62362;SDS011;48396;48.426;1.500;2023-02-23T08:39:31;16.85;;;7.18;;
62362;SDS011;48396;48.426;1.500;2023-02-23T08:41:57;15.80;;;6.78;;
62362;SDS011;48396;48.426;1.500;2023-02-23T08:44:23;19.45;;;7.30;;
62362;SDS011;48396;48.426;1.500;2023-02-23T08:46:49;18.73;;;7.07;;
62362;SDS011;48396;48.426;1.500;2023-02-23T08:49:15;17.05;;;7.40;;
62362;SDS011;48396;48.426;1.500;2023-02-23T08:51:41;17.38;;;6.45;;
62362;SDS011;48396;48.426;1.500;2023-02-23T08:54:07;20.50;;;6.90;;
62362;SDS011;48396;48.426;1.500;2023-02-23T08:56:38;16.77;;;6.28;;
62362;SDS011;48396;48.426;1.500;2023-02-23T08:59:07;16.85;;;6.90;;
62362;SDS011;48396;48.426;1.500;2023-02-23T09:01:34;15.02;;;6.53;;
62362;SDS011;48396;48.426;1.500;2023-02-23T09:04:01;18.88;;;7.20;;
62362;SDS011;48396;48.426;1.500;2023-02-23T09:06:28;16.42;;;6.65;;
62362;SDS011;48396;48.426;1.500;2023-02-23T09:08:54;20.00;;;7.60;;
62362;SDS011;48396;48.426;1.500;2023-02-23T09:11:20;20.27;;;7.10;;
62362;SDS011;48396;48.426;1.500;2023-02-23T09:13:46;19.67;;;7.38;;
62362;SDS011;48396;48.426;1.500;2023-02-23T09:16:12;19.52;;;8.00;;
62362;SDS011;48396;48.426;1.500;2023-02-23T09:18:38;19.00;;;7.95;;
62362;SDS011;48396;48.426;1.500;2023-02-23T09:21:09;18.17;;;7.88;;
62362;SDS011;48396;48.426;1.500;2023-02-23T09:23:46;21.20;;;8.48;;
62362;SDS011;48396;48.426;1.500;2023-02-23T09:26:15;19.98;;;9.00;;
62362;SDS011;48396;48.426;1.500;2023-02-23T09:28:42;21.05;;;8.70;;
62362;SDS011;48396;48.426;1.500;2023-02-23T09:31:10;20.20;;;8.88;;
62362;SDS011;48396;48.426;1.500;2023-02-23T09:33:37;19.85;;;9.25;;
62362;SDS011;48396;48.426;1.500;2023-02-23T09:36:04;21.35;;;9.70;;
62362;SDS011;48396;48.426;1.500;2023-02-23T09:38:37;21.77;;;9.95;;
62362;SDS011;48396;48.426;1.500;2023-02-23T09:41:05;21.63;;;9.90;;
62362;SDS011;48396;48.426;1.500;2023-02-23T09:44:02;20.52;;;9.60;;
62362;SDS011;48396;48.426;1.500;2023-02-23T09:46:44;21.42;;;9.27;;
62362;SDS011;48396;48.426;1.500;2023-02-23T09:49:18;24.17;;;11.05;;
62362;SDS011;48396;48.426;1.500;2023-02-23T09:54:17;21.38;;;9.82;;
62362;SDS011;48396;48.426;1.500;2023-02-23T09:56:48;23.13;;;10.43;;
62362;SDS011;48396;48.426;1.500;2023-02-23T09:59:16;24.33;;;11.68;;
62362;SDS011;48396;48.426;1.500;2023-02-23T10:20:01;30.70;;;15.20;;
62362;SDS011;48396;48.426;1.500;2023-02-23T10:22:37;30.40;;;14.88;;
62362;SDS011;48396;48.426;1.500;2023-02-23T10:25:18;27.73;;;14.57;;
62362;SDS011;48396;48.426;1.500;2023-02-23T10:27:49;27.67;;;14.88;;
62362;SDS011;48396;48.426;1.500;2023-02-23T10:30:28;31.88;;;15.80;;
62362;SDS011;48396;48.426;1.500;2023-02-23T10:33:17;32.38;;;16.90;;
62362;SDS011;48396;48.426;1.500;2023-02-23T10:35:57;27.60;;;14.13;;
62362;SDS011;48396;48.426;1.500;2023-02-23T10:38:26;26.63;;;13.25;;
62362;SDS011;48396;48.426;1.500;2023-02-23T10:40:55;26.92;;;12.65;;
62362;SDS011;48396;48.426;1.500;2023-02-23T10:43:22;27.60;;;13.00;;
62362;SDS011;48396;48.426;1.500;2023-02-23T10:45:49;26.25;;;12.10;;
62362;SDS011;48396;48.426;1.500;2023-02-23T10:48:21;23.40;;;11.32;;
62362;SDS011;48396;48.426;1.500;2023-02-23T10:50:54;24.77;;;12.13;;
62362;SDS011;48396;48.426;1.500;2023-02-23T10:53:33;24.40;;;11.20;;
62362;SDS011;48396;48.426;1.500;2023-02-23T11:01:13;25.15;;;11.85;;
62362;SDS011;48396;48.426;1.500;2023-02-23T11:03:43;23.52;;;11.25;;
62362;SDS011;48396;48.426;1.500;2023-02-23T11:06:28;23.70;;;10.77;;
62362;SDS011;48396;48.426;1.500;2023-02-23T11:09:10;23.42;;;10.35;;
62362;SDS011;48396;48.426;1.500;2023-02-23T11:14:58;21.83;;;9.38;;
62362;SDS011;48396;48.426;1.500;2023-02-23T11:17:43;23.35;;;9.60;;
62362;SDS011;48396;48.426;1.500;2023-02-23T11:22:41;20.67;;;9.93;;
62362;SDS011;48396;48.426;1.500;2023-02-23T11:25:14;20.60;;;9.05;;
62362;SDS011;48396;48.426;1.500;2023-02-23T11:27:49;19.35;;;8.60;;
62362;SDS011;48396;48.426;1.500;2023-02-23T11:30:21;19.95;;;9.43;;
62362;SDS011;48396;48.426;1.500;2023-02-23T11:32:57;17.90;;;8.27;;
62362;SDS011;48396;48.426;1.500;2023-02-23T11:35:33;18.20;;;7.90;;
62362;SDS011;48396;48.426;1.500;2023-02-23T11:38:05;18.67;;;8.52;;
62362;SDS011;48396;48.426;1.500;2023-02-23T11:41:02;19.23;;;8.25;;
62362;SDS011;48396;48.426;1.500;2023-02-23T11:43:31;18.55;;;7.85;;
62362;SDS011;48396;48.426;1.500;2023-02-23T11:45:58;18.63;;;8.05;;
62362;SDS011;48396;48.426;1.500;2023-02-23T11:50:58;20.38;;;9.30;;
62362;SDS011;48396;48.426;1.500;2023-02-23T11:53:30;20.10;;;9.10;;
62362;SDS011;48396;48.426;1.500;2023-02-23T11:56:01;20.75;;;9.15;;
62362;SDS011;48396;48.426;1.500;2023-02-23T11:58:39;19.65;;;8.52;;
62362;SDS011;48396;48.426;1.500;2023-02-23T12:01:11;20.27;;;8.70;;
62362;SDS011;48396;48.426;1.500;2023-02-23T12:04:02;19.88;;;8.57;;
62362;SDS011;48396;48.426;1.500;2023-02-23T12:06:31;17.98;;;7.80;;
62362;SDS011;48396;48.426;1.500;2023-02-23T12:11:54;20.73;;;8.87;;
62362;SDS011;48396;48.426;1.500;2023-02-23T12:14:29;21.52;;;8.85;;
62362;SDS011;48396;48.426;1.500;2023-02-23T12:17:04;19.50;;;9.07;;
62362;SDS011;48396;48.426;1.500;2023-02-23T12:19:38;19.27;;;9.07;;
62362;SDS011;48396;48.426;1.500;2023-02-23T12:24:48;18.08;;;8.60;;
62362;SDS011;48396;48.426;1.500;2023-02-23T12:27:23;19.80;;;9.05;;
62362;SDS011;48396;48.426;1.500;2023-02-23T12:30:02;18.83;;;8.90;;
62362;SDS011;48396;48.426;1.500;2023-02-23T12:32:37;19.65;;;8.52;;
62362;SDS011;48396;48.426;1.500;2023-02-23T12:37:47;18.95;;;8.70;;
62362;SDS011;48396;48.426;1.500;2023-02-23T12:40:21;18.80;;;8.80;;
62362;SDS011;48396;48.426;1.500;2023-02-23T12:42:55;19.48;;;9.02;;
62362;SDS011;48396;48.426;1.500;2023-02-23T12:45:45;20.15;;;9.45;;
62362;SDS011;48396;48.426;1.500;2023-02-23T12:54:11;24.75;;;10.32;;
62362;SDS011;48396;48.426;1.500;2023-02-23T13:02:03;21.65;;;9.65;;
62362;SDS011;48396;48.426;1.500;2023-02-23T13:07:34;19.15;;;9.82;;
62362;SDS011;48396;48.426;1.500;2023-02-23T13:11:06;21.35;;;9.95;;
62362;SDS011;48396;48.426;1.500;2023-02-23T13:13:28;18.83;;;8.75;;
62362;SDS011;48396;48.426;1.500;2023-02-23T13:21:36;24.42;;;10.65;;
62362;SDS011;48396;48.426;1.500;2023-02-23T13:24:30;19.52;;;9.45;;
62362;SDS011;48396;48.426;1.500;2023-02-23T13:29:32;19.95;;;9.02;;
62362;SDS011;48396;48.426;1.500;2023-02-23T13:32:04;20.08;;;9.85;;
62362;SDS011;48396;48.426;1.500;2023-02-23T13:34:43;19.80;;;9.38;;
62362;SDS011;48396;48.426;1.500;2023-02-23T13:37:16;21.77;;;10.32;;
62362;SDS011;48396;48.426;1.500;2023-02-23T13:39:47;19.38;;;9.35;;
62362;SDS011;48396;48.426;1.500;2023-02-23T13:45:23;20.63;;;9.85;;
62362;SDS011;48396;48.426;1.500;2023-02-23T13:52:54;20.77;;;9.68;;
62362;SDS011;48396;48.426;1.500;2023-02-23T13:57:54;23.15;;;10.60;;
62362;SDS011;48396;48.426;1.500;2023-02-23T14:00:28;21.02;;;9.68;;
62362;SDS011;48396;48.426;1.500;2023-02-23T14:02:54;22.02;;;10.05;;
62362;SDS011;48396;48.426;1.500;2023-02-23T14:05:24;20.38;;;10.43;;
62362;SDS011;48396;48.426;1.500;2023-02-23T14:07:53;21.23;;;10.45;;
62362;SDS011;48396;48.426;1.500;2023-02-23T14:10:36;23.38;;;11.23;;
62362;SDS011;48396;48.426;1.500;2023-02-23T14:15:44;21.60;;;10.85;;
62362;SDS011;48396;48.426;1.500;2023-02-23T14:26:34;23.13;;;11.75;;
62362;SDS011;48396;48.426;1.500;2023-02-23T14:34:44;24.90;;;12.35;;
62362;SDS011;48396;48.426;1.500;2023-02-23T14:37:18;23.95;;;12.30;;
62362;SDS011;48396;48.426;1.500;2023-02-23T14:39:56;22.92;;;11.70;;
62362;SDS011;48396;48.426;1.500;2023-02-23T14:42:45;25.40;;;13.02;;
62362;SDS011;48396;48.426;1.500;2023-02-23T14:45:21;25.23;;;12.73;;
62362;SDS011;48396;48.426;1.500;2023-02-23T14:47:51;24.20;;;13.05;;
62362;SDS011;48396;48.426;1.500;2023-02-23T14:50:24;23.65;;;12.75;;
62362;SDS011;48396;48.426;1.500;2023-02-23T14:52:58;27.45;;;13.07;;
62362;SDS011;48396;48.426;1.500;2023-02-23T14:55:27;25.27;;;13.50;;
62362;SDS011;48396;48.426;1.500;2023-02-23T14:57:54;26.88;;;14.07;;
62362;SDS011;48396;48.426;1.500;2023-02-23T15:00:28;25.92;;;13.18;;
62362;SDS011;48396;48.426;1.500;2023-02-23T15:03:00;24.52;;;13.20;;
62362;SDS011;48396;48.426;1.500;2023-02-23T15:05:34;23.38;;;11.63;;
62362;SDS011;48396;48.426;1.500;2023-02-23T15:08:06;24.38;;;11.82;;
62362;SDS011;48396;48.426;1.500;2023-02-23T15:10:41;25.03;;;12.33;;
62362;SDS011;48396;48.426;1.500;2023-02-23T15:16:05;25.67;;;13.13;;
62362;SDS011;48396;48.426;1.500;2023-02-23T15:18:47;26.55;;;13.77;;
62362;SDS011;48396;48.426;1.500;2023-02-23T15:21:16;26.90;;;14.35;;
62362;SDS011;48396;48.426;1.500;2023-02-23T15:23:48;27.25;;;14.50;;
62362;SDS011;48396;48.426;1.500;2023-02-23T15:26:35;28.88;;;14.73;;
62362;SDS011;48396;48.426;1.500;2023-02-23T15:29:21;27.48;;;13.98;;
62362;SDS011;48396;48.426;1.500;2023-02-23T15:31:55;27.90;;;14.60;;
62362;SDS011;48396;48.426;1.500;2023-02-23T15:34:38;26.40;;;14.98;;
62362;SDS011;48396;48.426;1.500;2023-02-23T15:37:06;26.33;;;14.55;;
62362;SDS011;48396;48.426;1.500;2023-02-23T15:42:22;25.98;;;15.15;;
62362;SDS011;48396;48.426;1.500;2023-02-23T15:44:57;27.90;;;13.65;;
62362;SDS011;48396;48.426;1.500;2023-02-23T15:47:27;26.75;;;15.15;;
62362;SDS011;48396;48.426;1.500;2023-02-23T15:50:02;27.13;;;14.38;;
62362;SDS011;48396;48.426;1.500;2023-02-23T15:52:49;28.10;;;14.45;;
62362;SDS011;48396;48.426;1.500;2023-02-23T15:55:25;25.58;;;13.75;;
62362;SDS011;48396;48.426;1.500;2023-02-23T15:57:57;27.02;;;14.18;;
62362;SDS011;48396;48.426;1.500;2023-02-23T16:00:27;28.85;;;13.95;;
62362;SDS011;48396;48.426;1.500;2023-02-23T16:03:01;28.17;;;14.38;;
62362;SDS011;48396;48.426;1.500;2023-02-23T16:05:29;26.83;;;13.70;;
62362;SDS011;48396;48.426;1.500;2023-02-23T16:10:50;27.90;;;13.95;;
62362;SDS011;48396;48.426;1.500;2023-02-23T16:13:21;26.67;;;14.73;;
62362;SDS011;48396;48.426;1.500;2023-02-23T16:15:47;27.42;;;14.27;;
62362;SDS011;48396;48.426;1.500;2023-02-23T16:18:17;25.95;;;14.15;;
62362;SDS011;48396;48.426;1.500;2023-02-23T16:23:24;25.40;;;13.85;;
62362;SDS011;48396;48.426;1.500;2023-02-23T16:25:55;26.48;;;13.45;;
62362;SDS011;48396;48.426;1.500;2023-02-23T16:28:30;25.98;;;14.90;;
62362;SDS011;48396;48.426;1.500;2023-02-23T16:31:01;24.48;;;12.90;;
62362;SDS011;48396;48.426;1.500;2023-02-23T16:41:18;25.65;;;13.25;;
62362;SDS011;48396;48.426;1.500;2023-02-23T16:43:49;26.63;;;12.77;;
62362;SDS011;48396;48.426;1.500;2023-02-23T16:46:17;25.55;;;13.05;;
62362;SDS011;48396;48.426;1.500;2023-02-23T16:48:44;25.10;;;12.80;;
62362;SDS011;48396;48.426;1.500;2023-02-23T16:51:11;25.52;;;12.25;;
62362;SDS011;48396;48.426;1.500;2023-02-23T16:53:39;26.15;;;13.10;;
62362;SDS011;48396;48.426;1.500;2023-02-23T16:56:05;24.27;;;13.07;;
62362;SDS011;48396;48.426;1.500;2023-02-23T16:58:36;26.52;;;13.25;;
62362;SDS011;48396;48.426;1.500;2023-02-23T17:01:03;24.15;;;12.27;;
62362;SDS011;48396;48.426;1.500;2023-02-23T17:03:30;25.25;;;13.10;;
62362;SDS011;48396;48.426;1.500;2023-02-23T17:05:57;24.20;;;12.88;;
62362;SDS011;48396;48.426;1.500;2023-02-23T17:08:25;26.50;;;13.50;;
62362;SDS011;48396;48.426;1.500;2023-02-23T17:10:51;25.98;;;13.18;;
62362;SDS011;48396;48.426;1.500;2023-02-23T17:13:24;23.58;;;12.10;;
62362;SDS011;48396;48.426;1.500;2023-02-23T17:15:52;26.55;;;13.75;;
62362;SDS011;48396;48.426;1.500;2023-02-23T17:18:21;23.17;;;11.90;;
62362;SDS011;48396;48.426;1.500;2023-02-23T17:20:49;25.73;;;13.65;;
62362;SDS011;48396;48.426;1.500;2023-02-23T17:23:16;24.33;;;12.63;;
62362;SDS011;48396;48.426;1.500;2023-02-23T17:25:42;23.75;;;12.55;;
62362;SDS011;48396;48.426;1.500;2023-02-23T17:28:08;24.00;;;12.80;;
62362;SDS011;48396;48.426;1.500;2023-02-23T17:30:34;24.42;;;13.07;;
62362;SDS011;48396;48.426;1.500;2023-02-23T17:33:01;26.30;;;12.93;;
62362;SDS011;48396;48.426;1.500;2023-02-23T17:35:28;24.05;;;12.15;;
62362;SDS011;48396;48.426;1.500;2023-02-23T17:37:57;24.90;;;12.00;;
62362;SDS011;48396;48.426;1.500;2023-02-23T17:40:25;25.30;;;13.48;;